createdAt,value
2019-02-15T00:00:10.206Z,33.90
2019-02-15T00:01:17.454Z,33.75
2019-02-15T00:01:51.417Z,33.70
2019-02-15T00:02:27.018Z,33.00
2019-02-15T00:03:00.383Z,33.33
2019-02-15T00:03:33.471Z,33.15
2019-02-15T00:04:06.347Z,32.83
2019-02-15T00:04:39.271Z,33.28
2019-02-15T00:05:12.298Z,33.38
2019-02-15T00:05:45.319Z,33.00
2019-02-15T00:06:18.399Z,33.58
2019-02-15T00:06:51.385Z,33.48
2019-02-15T00:07:24.501Z,33.92
2019-02-15T00:07:57.745Z,33.80
2019-02-15T00:08:30.942Z,33.08
2019-02-15T00:09:05.023Z,33.15
2019-02-15T00:09:40.031Z,33.38
2019-02-15T00:10:13.034Z,32.73
2019-02-15T00:10:46.053Z,33.70
2019-02-15T00:11:19.068Z,32.80
2019-02-15T00:11:52.106Z,33.10
2019-02-15T00:12:25.085Z,33.53
2019-02-15T00:12:57.913Z,32.98
2019-02-15T00:13:30.937Z,33.73
2019-02-15T00:14:03.863Z,32.85
2019-02-15T00:14:46.598Z,32.80
2019-02-15T00:15:19.641Z,32.90
2019-02-15T00:15:52.529Z,32.80
2019-02-15T00:16:25.617Z,33.28
2019-02-15T00:17:08.892Z,33.13
2019-02-15T00:18:07.155Z,32.95
2019-02-15T00:18:46.486Z,33.05
2019-02-15T00:19:51.505Z,32.75
2019-02-15T00:20:32.195Z,33.53
2019-02-15T00:21:17.353Z,33.65
2019-02-15T00:21:51.887Z,32.73
2019-02-15T00:22:24.922Z,33.67
2019-02-15T00:22:57.966Z,33.80
2019-02-15T00:23:30.869Z,33.60
2019-02-15T00:24:03.991Z,33.20
2019-02-15T00:24:36.885Z,32.78
2019-02-15T00:25:09.842Z,33.13
2019-02-15T00:25:42.859Z,33.30
2019-02-15T00:26:16.649Z,33.20
2019-02-15T00:26:49.832Z,33.20
2019-02-15T00:27:22.891Z,33.13
2019-02-15T00:27:55.946Z,33.75
2019-02-15T00:28:28.922Z,32.93
2019-02-15T00:29:03.466Z,33.05
2019-02-15T00:29:36.425Z,33.58
2019-02-15T00:30:10.645Z,33.18
2019-02-15T00:30:43.721Z,33.98
2019-02-15T00:31:19.264Z,32.88
2019-02-15T00:31:52.210Z,34.18
2019-02-15T00:32:25.248Z,32.93
2019-02-15T00:32:58.294Z,33.23
2019-02-15T00:33:31.096Z,33.50
2019-02-15T00:34:04.268Z,32.93
2019-02-15T00:34:37.252Z,32.67
2019-02-15T00:35:10.381Z,33.40
2019-02-15T00:35:43.261Z,33.95
2019-02-15T00:36:16.204Z,33.58
2019-02-15T00:36:49.235Z,33.70
2019-02-15T00:37:22.270Z,33.08
2019-02-15T00:37:55.287Z,33.13
2019-02-15T00:38:28.248Z,32.58
2019-02-15T00:39:01.139Z,33.33
2019-02-15T00:39:34.084Z,33.00
2019-02-15T00:40:07.790Z,32.65
2019-02-15T00:40:40.782Z,33.20
2019-02-15T00:41:13.668Z,32.73
2019-02-15T00:41:46.609Z,33.53
2019-02-15T00:42:19.683Z,32.63
2019-02-15T00:42:52.655Z,32.67
2019-02-15T00:43:25.558Z,33.48
2019-02-15T00:43:59.405Z,32.58
2019-02-15T00:44:32.623Z,33.15
2019-02-15T00:45:06.009Z,32.00
2019-02-15T00:45:50.307Z,33.44
2019-02-15T00:46:41.737Z,33.10
2019-02-15T00:47:27.571Z,33.53
2019-02-15T00:48:07.587Z,33.05
2019-02-15T00:48:40.556Z,32.83
2019-02-15T00:49:20.100Z,33.00
2019-02-15T00:50:04.841Z,32.65
2019-02-15T00:50:43.960Z,33.60
2019-02-15T00:51:34.147Z,33.40
2019-02-15T00:52:22.112Z,33.95
2019-02-15T00:53:14.879Z,33.28
2019-02-15T00:53:56.812Z,33.70
2019-02-15T00:54:46.806Z,33.42
2019-02-15T00:55:38.245Z,33.28
2019-02-15T00:56:30.661Z,33.42
2019-02-15T00:57:22.154Z,32.80
2019-02-15T00:58:13.531Z,33.80
2019-02-15T00:59:03.810Z,32.98
2019-02-15T01:00:05.822Z,33.02
2019-02-15T01:00:58.887Z,33.65
2019-02-15T01:02:03.967Z,33.18
2019-02-15T01:02:53.468Z,33.15
2019-02-15T01:03:38.349Z,32.75
2019-02-15T01:04:33.628Z,33.90
2019-02-15T01:05:26.772Z,32.95
2019-02-15T01:06:20.990Z,33.55
2019-02-15T01:07:12.318Z,33.73
2019-02-15T01:08:03.871Z,34.48
2019-02-15T01:08:45.156Z,34.03
2019-02-15T01:09:26.088Z,33.98
2019-02-15T01:10:27.720Z,34.25
2019-02-15T01:11:29.334Z,33.78
2019-02-15T01:12:09.116Z,34.45
2019-02-15T01:12:49.863Z,33.25
2019-02-15T01:13:31.006Z,33.23
2019-02-15T01:13:59.068Z,33.65
2019-02-15T01:14:32.170Z,33.83
2019-02-15T01:15:05.410Z,33.25
2019-02-15T01:15:40.324Z,34.18
2019-02-15T01:16:13.206Z,33.73
2019-02-15T01:16:46.091Z,32.98
2019-02-15T01:17:19.154Z,33.50
2019-02-15T01:17:52.268Z,33.60
2019-02-15T01:18:25.220Z,33.83
2019-02-15T01:19:00.289Z,33.28
2019-02-15T01:19:33.338Z,33.90
2019-02-15T01:20:06.478Z,33.02
2019-02-15T01:20:40.478Z,33.70
2019-02-15T01:21:13.864Z,33.23
2019-02-15T01:21:46.942Z,33.15
2019-02-15T01:22:20.123Z,32.83
2019-02-15T01:22:53.306Z,32.63
2019-02-15T01:23:26.226Z,32.48
2019-02-15T01:23:59.300Z,33.23
2019-02-15T01:24:32.335Z,33.35
2019-02-15T01:25:05.482Z,33.63
2019-02-15T01:26:00.472Z,32.75
2019-02-15T01:26:48.124Z,33.33
2019-02-15T01:27:37.148Z,32.73
2019-02-15T01:28:16.617Z,32.48
2019-02-15T01:29:05.724Z,33.05
2019-02-15T01:29:51.327Z,33.35
2019-02-15T01:30:44.174Z,33.02
2019-02-15T01:31:42.452Z,32.93
2019-02-15T01:32:29.762Z,33.42
2019-02-15T01:33:23.538Z,33.02
2019-02-15T01:34:10.292Z,32.85
2019-02-15T01:34:58.106Z,33.75
2019-02-15T01:35:43.394Z,34.50
2019-02-15T01:36:30.582Z,33.42
2019-02-15T01:37:23.938Z,32.40
2019-02-15T01:38:21.380Z,32.65
2019-02-15T01:39:05.618Z,31.95
2019-02-15T01:39:46.878Z,32.70
2019-02-15T01:40:42.482Z,32.28
2019-02-15T01:41:27.848Z,32.63
2019-02-15T01:42:38.884Z,32.70
2019-02-15T01:43:46.640Z,32.08
2019-02-15T01:44:39.399Z,32.15
2019-02-15T01:45:17.463Z,31.95
2019-02-15T01:46:05.560Z,32.28
2019-02-15T01:46:58.417Z,32.15
2019-02-15T01:47:35.983Z,31.10
2019-02-15T01:48:08.904Z,32.03
2019-02-15T01:48:41.962Z,32.40
2019-02-15T01:49:15.002Z,31.90
2019-02-15T01:49:48.100Z,32.28
2019-02-15T01:50:21.197Z,32.17
2019-02-15T01:50:54.174Z,31.65
2019-02-15T01:51:27.263Z,31.45
2019-02-15T01:52:00.338Z,31.60
2019-02-15T01:52:33.374Z,31.37
2019-02-15T01:53:06.262Z,31.02
2019-02-15T01:53:39.337Z,32.25
2019-02-15T01:54:12.298Z,31.27
2019-02-15T01:54:45.286Z,31.97
2019-02-15T01:55:18.374Z,31.82
2019-02-15T01:55:51.383Z,31.85
2019-02-15T01:56:24.544Z,31.35
2019-02-15T01:56:57.527Z,32.20
2019-02-15T01:57:30.680Z,32.15
2019-02-15T01:58:03.690Z,31.90
2019-02-15T01:58:36.618Z,31.93
2019-02-15T01:59:09.604Z,31.60
2019-02-15T01:59:42.524Z,32.28
2019-02-15T02:00:16.584Z,32.28
2019-02-15T02:00:49.623Z,31.97
2019-02-15T02:01:24.166Z,31.80
2019-02-15T02:01:57.104Z,31.80
2019-02-15T02:02:30.148Z,31.70
2019-02-15T02:03:03.164Z,31.17
2019-02-15T02:03:36.067Z,31.57
2019-02-15T02:04:09.025Z,31.30
2019-02-15T02:04:42.024Z,31.52
2019-02-15T02:05:15.099Z,30.60
2019-02-15T02:05:48.100Z,30.80
2019-02-15T02:06:21.036Z,31.48
2019-02-15T02:06:54.045Z,31.85
2019-02-15T02:07:26.974Z,30.57
2019-02-15T02:08:01.052Z,30.23
2019-02-15T02:08:34.264Z,31.52
2019-02-15T02:09:07.268Z,31.20
2019-02-15T02:09:40.314Z,30.75
2019-02-15T02:10:14.856Z,31.02
2019-02-15T02:10:47.810Z,30.90
2019-02-15T02:11:20.623Z,30.95
2019-02-15T02:11:53.635Z,31.55
2019-02-15T02:12:26.522Z,30.72
2019-02-15T02:12:59.485Z,30.17
2019-02-15T02:13:32.382Z,30.30
2019-02-15T02:14:05.406Z,30.70
2019-02-15T02:14:38.405Z,30.77
2019-02-15T02:15:11.645Z,31.15
2019-02-15T02:15:44.513Z,30.72
2019-02-15T02:16:18.563Z,30.20
2019-02-15T02:16:51.537Z,30.72
2019-02-15T02:17:24.615Z,31.62
2019-02-15T02:17:57.644Z,30.30
2019-02-15T02:18:30.786Z,30.60
2019-02-15T02:19:05.144Z,29.98
2019-02-15T02:19:38.059Z,30.77
2019-02-15T02:20:11.303Z,30.48
2019-02-15T02:20:44.365Z,30.55
2019-02-15T02:21:17.351Z,30.32
2019-02-15T02:21:50.309Z,30.00
2019-02-15T02:22:23.254Z,30.85
2019-02-15T02:22:56.201Z,30.48
2019-02-15T02:23:29.429Z,30.55
2019-02-15T02:24:03.157Z,30.70
2019-02-15T02:24:36.227Z,30.55
2019-02-15T02:25:09.264Z,30.23
2019-02-15T02:25:42.251Z,30.68
2019-02-15T02:26:15.399Z,30.65
2019-02-15T02:26:48.295Z,30.10
2019-02-15T02:27:21.139Z,30.35
2019-02-15T02:27:54.131Z,29.77
2019-02-15T02:28:27.152Z,30.55
2019-02-15T02:29:00.197Z,30.68
2019-02-15T02:29:33.267Z,30.55
2019-02-15T02:30:08.498Z,29.82
2019-02-15T02:30:41.434Z,29.85
2019-02-15T02:31:14.444Z,30.55
2019-02-15T02:31:48.469Z,30.40
2019-02-15T02:32:21.488Z,30.32
2019-02-15T02:32:54.517Z,29.35
2019-02-15T02:33:28.977Z,30.17
2019-02-15T02:34:01.917Z,30.57
2019-02-15T02:34:34.799Z,29.95
2019-02-15T02:35:08.243Z,29.60
2019-02-15T02:35:41.139Z,30.10
2019-02-15T02:36:14.183Z,30.15
2019-02-15T02:36:52.615Z,30.32
2019-02-15T02:37:25.521Z,30.00
2019-02-15T02:37:59.454Z,30.08
2019-02-15T02:38:32.385Z,29.70
2019-02-15T02:39:05.305Z,29.15
2019-02-15T02:39:38.324Z,29.52
2019-02-15T02:40:11.249Z,30.52
2019-02-15T02:40:44.165Z,30.05
2019-02-15T02:41:17.177Z,30.12
2019-02-15T02:41:50.191Z,30.08
2019-02-15T02:42:23.187Z,30.00
2019-02-15T02:42:56.240Z,29.70
2019-02-15T02:43:29.157Z,29.85
2019-02-15T02:44:02.182Z,29.85
2019-02-15T02:44:35.072Z,29.52
2019-02-15T02:45:08.477Z,31.12
2019-02-15T02:45:41.392Z,30.05
2019-02-15T02:46:14.523Z,29.52
2019-02-15T02:46:47.657Z,30.40
2019-02-15T02:47:20.611Z,30.10
2019-02-15T02:47:53.646Z,29.52
2019-02-15T02:48:26.587Z,30.32
2019-02-15T02:48:59.645Z,30.55
2019-02-15T02:49:32.657Z,30.52
2019-02-15T02:50:05.858Z,29.67
2019-02-15T02:50:38.741Z,29.85
2019-02-15T02:51:12.846Z,30.30
2019-02-15T02:51:45.851Z,30.02
2019-02-15T02:52:18.887Z,30.25
2019-02-15T02:52:51.817Z,29.85
2019-02-15T02:53:24.759Z,30.88
2019-02-15T02:53:59.033Z,29.37
2019-02-15T02:54:31.926Z,30.15
2019-02-15T02:55:05.087Z,29.77
2019-02-15T02:55:39.730Z,29.95
2019-02-15T02:56:12.722Z,30.52
2019-02-15T02:56:45.785Z,29.40
2019-02-15T02:57:18.734Z,29.65
2019-02-15T02:57:51.775Z,29.42
2019-02-15T02:58:24.893Z,29.45
2019-02-15T02:58:57.931Z,29.60
2019-02-15T02:59:30.970Z,29.80
2019-02-15T03:00:04.242Z,29.37
2019-02-15T03:00:38.311Z,28.87
2019-02-15T03:01:12.795Z,29.60
2019-02-15T03:01:45.929Z,29.85
2019-02-15T03:02:19.003Z,29.72
2019-02-15T03:02:52.217Z,30.45
2019-02-15T03:03:25.310Z,29.37
2019-02-15T03:03:58.394Z,29.57
2019-02-15T03:04:31.333Z,28.73
2019-02-15T03:05:06.020Z,29.50
2019-02-15T03:05:38.980Z,29.37
2019-02-15T03:06:12.008Z,29.27
2019-02-15T03:06:44.905Z,29.80
2019-02-15T03:07:17.795Z,29.05
2019-02-15T03:07:50.720Z,29.23
2019-02-15T03:08:23.652Z,29.65
2019-02-15T03:08:56.533Z,29.32
2019-02-15T03:09:29.565Z,29.70
2019-02-15T03:10:03.422Z,29.30
2019-02-15T03:10:36.559Z,29.25
2019-02-15T03:11:09.599Z,29.20
2019-02-15T03:11:45.109Z,29.18
2019-02-15T03:12:18.331Z,29.98
2019-02-15T03:12:51.298Z,30.05
2019-02-15T03:13:24.333Z,29.60
2019-02-15T03:13:58.799Z,29.90
2019-02-15T03:14:31.737Z,29.02
2019-02-15T03:15:05.175Z,29.80
2019-02-15T03:15:38.224Z,29.02
2019-02-15T03:16:11.360Z,29.35
2019-02-15T03:16:44.360Z,29.60
2019-02-15T03:17:17.493Z,29.65
2019-02-15T03:17:50.582Z,29.37
2019-02-15T03:18:23.657Z,29.37
2019-02-15T03:18:56.647Z,29.20
2019-02-15T03:19:29.631Z,29.95
2019-02-15T03:20:03.156Z,29.35
2019-02-15T03:20:36.459Z,28.47
2019-02-15T03:21:09.654Z,29.02
2019-02-15T03:21:42.734Z,29.85
2019-02-15T03:22:15.783Z,29.07
2019-02-15T03:22:48.864Z,29.42
2019-02-15T03:23:22.113Z,29.72
2019-02-15T03:23:55.219Z,29.07
2019-02-15T03:24:28.384Z,29.35
2019-02-15T03:25:01.581Z,28.95
2019-02-15T03:25:34.569Z,28.67
2019-02-15T03:26:07.647Z,29.12
2019-02-15T03:26:40.633Z,28.83
2019-02-15T03:27:13.721Z,29.37
2019-02-15T03:27:46.779Z,29.05
2019-02-15T03:28:19.864Z,29.57
2019-02-15T03:28:52.722Z,29.02
2019-02-15T03:29:25.812Z,29.20
2019-02-15T03:29:58.833Z,29.18
2019-02-15T03:30:31.885Z,29.50
2019-02-15T03:31:05.072Z,29.07
2019-02-15T03:31:38.979Z,29.35
2019-02-15T03:32:12.219Z,29.25
2019-02-15T03:32:45.203Z,28.45
2019-02-15T03:33:18.080Z,30.05
2019-02-15T03:33:50.994Z,28.77
2019-02-15T03:34:23.957Z,29.18
2019-02-15T03:34:56.960Z,28.67
2019-02-15T03:35:29.971Z,29.45
2019-02-15T03:36:04.190Z,29.18
2019-02-15T03:36:45.738Z,29.00
2019-02-15T03:37:44.205Z,30.05
2019-02-15T03:38:46.446Z,28.85
2019-02-15T03:39:27.724Z,28.92
2019-02-15T03:40:05.967Z,29.23
2019-02-15T03:40:45.992Z,28.47
2019-02-15T03:41:30.317Z,29.10
2019-02-15T03:42:03.460Z,28.77
2019-02-15T03:42:36.824Z,28.65
2019-02-15T03:43:09.988Z,28.57
2019-02-15T03:43:43.064Z,28.57
2019-02-15T03:44:22.250Z,28.05
2019-02-15T03:44:51.010Z,28.47
2019-02-15T03:45:24.032Z,28.40
2019-02-15T03:45:57.113Z,28.57
2019-02-15T03:46:30.282Z,28.73
2019-02-15T03:47:03.343Z,28.32
2019-02-15T03:47:38.124Z,29.27
2019-02-15T03:48:11.292Z,28.55
2019-02-15T03:48:44.319Z,28.95
2019-02-15T03:49:17.546Z,28.73
2019-02-15T03:49:50.617Z,29.02
2019-02-15T03:50:23.571Z,29.40
2019-02-15T03:50:56.550Z,29.15
2019-02-15T03:51:29.945Z,28.80
2019-02-15T03:52:03.128Z,28.02
2019-02-15T03:52:36.312Z,29.23
2019-02-15T03:53:09.309Z,28.85
2019-02-15T03:53:42.264Z,28.40
2019-02-15T03:54:15.428Z,28.92
2019-02-15T03:54:48.402Z,28.65
2019-02-15T03:55:21.324Z,28.35
2019-02-15T03:55:54.383Z,28.40
2019-02-15T03:56:27.496Z,29.02
2019-02-15T03:57:00.609Z,28.10
2019-02-15T03:57:33.697Z,28.73
2019-02-15T03:58:06.854Z,29.00
2019-02-15T03:58:39.926Z,28.77
2019-02-15T03:59:12.974Z,28.75
2019-02-15T03:59:46.166Z,28.92
2019-02-15T04:00:19.046Z,29.55
2019-02-15T04:00:51.996Z,29.12
2019-02-15T04:01:24.862Z,29.20
2019-02-15T04:01:58.590Z,28.80
2019-02-15T04:02:31.599Z,28.32
2019-02-15T04:03:04.630Z,29.18
2019-02-15T04:03:37.737Z,28.02
2019-02-15T04:04:10.667Z,29.15
2019-02-15T04:04:43.578Z,29.60
2019-02-15T04:05:16.603Z,28.50
2019-02-15T04:05:49.514Z,29.27
2019-02-15T04:06:22.561Z,28.45
2019-02-15T04:06:55.566Z,28.15
2019-02-15T04:07:28.434Z,28.90
2019-02-15T04:08:01.337Z,29.25
2019-02-15T04:08:34.393Z,27.93
2019-02-15T04:09:07.396Z,28.90
2019-02-15T04:09:40.232Z,29.07
2019-02-15T04:10:13.232Z,28.02
2019-02-15T04:10:46.196Z,28.83
2019-02-15T04:11:19.178Z,28.73
2019-02-15T04:11:52.207Z,28.98
2019-02-15T04:12:25.114Z,28.38
2019-02-15T04:12:58.018Z,28.75
2019-02-15T04:13:30.830Z,29.10
2019-02-15T04:14:04.178Z,28.77
2019-02-15T04:14:37.180Z,28.80
2019-02-15T04:15:11.641Z,28.57
2019-02-15T04:15:44.643Z,28.83
2019-02-15T04:16:17.562Z,28.30
2019-02-15T04:16:50.488Z,28.40
2019-02-15T04:17:25.100Z,28.60
2019-02-15T04:17:58.025Z,28.07
2019-02-15T04:18:30.950Z,28.80
2019-02-15T04:19:03.844Z,28.27
2019-02-15T04:19:36.960Z,29.42
2019-02-15T04:20:10.034Z,28.27
2019-02-15T04:20:42.954Z,28.15
2019-02-15T04:21:17.048Z,28.75
2019-02-15T04:21:49.978Z,28.52
2019-02-15T04:22:22.950Z,28.12
2019-02-15T04:22:55.899Z,28.02
2019-02-15T04:23:30.041Z,28.90
2019-02-15T04:24:03.103Z,29.07
2019-02-15T04:24:36.138Z,29.05
2019-02-15T04:25:09.156Z,29.20
2019-02-15T04:25:42.066Z,29.10
2019-02-15T04:26:16.840Z,29.05
2019-02-15T04:26:49.761Z,28.55
2019-02-15T04:27:22.682Z,28.23
2019-02-15T04:27:55.583Z,29.02
2019-02-15T04:28:28.764Z,28.85
2019-02-15T04:29:01.534Z,28.85
2019-02-15T04:29:35.917Z,28.98
2019-02-15T04:30:09.228Z,28.50
2019-02-15T04:30:42.239Z,29.05
2019-02-15T04:31:15.106Z,28.70
2019-02-15T04:31:48.252Z,28.75
2019-02-15T04:32:21.272Z,29.02
2019-02-15T04:32:54.197Z,28.67
2019-02-15T04:33:27.196Z,28.67
2019-02-15T04:34:00.224Z,28.90
2019-02-15T04:34:33.116Z,29.12
2019-02-15T04:35:07.723Z,28.75
2019-02-15T04:35:40.516Z,28.45
2019-02-15T04:36:14.314Z,28.70
2019-02-15T04:36:47.228Z,28.38
2019-02-15T04:37:20.104Z,29.00
2019-02-15T04:37:53.026Z,28.30
2019-02-15T04:38:25.973Z,28.32
2019-02-15T04:38:58.772Z,28.17
2019-02-15T04:39:33.250Z,28.32
2019-02-15T04:40:07.570Z,28.92
2019-02-15T04:40:40.396Z,28.55
2019-02-15T04:41:13.286Z,28.45
2019-02-15T04:41:46.225Z,28.80
2019-02-15T04:42:19.190Z,28.17
2019-02-15T04:42:52.114Z,29.25
2019-02-15T04:43:24.990Z,28.87
2019-02-15T04:43:58.235Z,29.12
2019-02-15T04:44:31.358Z,28.52
2019-02-15T04:45:05.206Z,28.42
2019-02-15T04:45:38.380Z,28.98
2019-02-15T04:46:11.550Z,29.45
2019-02-15T04:46:44.508Z,28.62
2019-02-15T04:47:17.573Z,28.47
2019-02-15T04:47:50.743Z,29.23
2019-02-15T04:48:23.779Z,29.15
2019-02-15T04:48:56.867Z,28.98
2019-02-15T04:49:30.051Z,29.67
2019-02-15T04:50:03.566Z,29.42
2019-02-15T04:50:36.747Z,29.63
2019-02-15T04:51:09.826Z,29.18
2019-02-15T04:51:42.691Z,28.62
2019-02-15T04:52:15.752Z,28.95
2019-02-15T04:52:48.614Z,29.45
2019-02-15T04:53:21.661Z,29.12
2019-02-15T04:53:54.711Z,28.62
2019-02-15T04:54:27.771Z,28.75
2019-02-15T04:55:00.700Z,29.23
2019-02-15T04:55:33.724Z,29.32
2019-02-15T04:56:06.592Z,28.85
2019-02-15T04:56:40.708Z,29.30
2019-02-15T04:57:13.923Z,28.47
2019-02-15T04:57:46.698Z,29.25
2019-02-15T04:58:20.025Z,28.90
2019-02-15T04:58:53.024Z,28.57
2019-02-15T04:59:25.977Z,28.38
2019-02-15T04:59:58.975Z,28.52
2019-02-15T05:00:32.140Z,28.27
2019-02-15T05:01:05.042Z,29.00
2019-02-15T05:01:38.018Z,28.75
2019-02-15T05:02:10.920Z,28.87
2019-02-15T05:02:43.880Z,28.87
2019-02-15T05:03:19.495Z,28.70
2019-02-15T05:03:51.766Z,28.57
2019-02-15T05:04:24.750Z,28.75
2019-02-15T05:04:57.568Z,28.73
2019-02-15T05:05:30.372Z,28.83
2019-02-15T05:06:03.494Z,28.70
2019-02-15T05:06:36.307Z,28.42
2019-02-15T05:07:09.315Z,28.67
2019-02-15T05:07:42.113Z,28.62
2019-02-15T05:08:15.022Z,28.75
2019-02-15T05:08:47.912Z,28.95
2019-02-15T05:09:20.711Z,28.75
2019-02-15T05:09:53.527Z,28.40
2019-02-15T05:10:26.590Z,28.85
2019-02-15T05:10:59.381Z,28.12
2019-02-15T05:11:32.342Z,28.50
2019-02-15T05:12:05.333Z,28.60
2019-02-15T05:12:38.147Z,28.95
2019-02-15T05:13:11.068Z,28.32
2019-02-15T05:13:44.047Z,29.48
2019-02-15T05:14:17.029Z,28.98
2019-02-15T05:14:53.066Z,29.05
2019-02-15T05:15:24.739Z,28.77
2019-02-15T05:15:57.789Z,28.42
2019-02-15T05:16:30.583Z,29.32
2019-02-15T05:17:03.519Z,28.95
2019-02-15T05:17:36.426Z,28.98
2019-02-15T05:18:09.321Z,29.18
2019-02-15T05:18:42.128Z,29.15
2019-02-15T05:19:15.109Z,28.95
2019-02-15T05:19:48.025Z,29.02
2019-02-15T05:20:20.908Z,29.27
2019-02-15T05:20:53.800Z,29.32
2019-02-15T05:21:26.617Z,29.05
2019-02-15T05:21:59.438Z,29.63
2019-02-15T05:22:32.615Z,29.10
2019-02-15T05:23:05.555Z,29.48
2019-02-15T05:23:38.589Z,29.18
2019-02-15T05:24:11.610Z,30.00
2019-02-15T05:24:44.691Z,29.15
2019-02-15T05:25:17.817Z,29.18
2019-02-15T05:25:50.838Z,29.55
2019-02-15T05:26:23.938Z,28.67
2019-02-15T05:26:56.892Z,28.32
2019-02-15T05:27:29.996Z,29.23
2019-02-15T05:28:03.201Z,29.50
2019-02-15T05:28:36.314Z,29.00
2019-02-15T05:29:09.379Z,28.67
2019-02-15T05:29:42.369Z,29.25
2019-02-15T05:30:16.248Z,29.42
2019-02-15T05:30:49.263Z,29.40
2019-02-15T05:31:22.177Z,29.30
2019-02-15T05:31:55.061Z,29.80
2019-02-15T05:32:27.875Z,28.38
2019-02-15T05:33:00.875Z,28.75
2019-02-15T05:33:35.571Z,28.92
2019-02-15T05:34:08.921Z,29.25
2019-02-15T05:34:41.942Z,29.20
2019-02-15T05:35:14.910Z,29.70
2019-02-15T05:35:47.903Z,29.37
2019-02-15T05:36:20.693Z,28.67
2019-02-15T05:36:53.955Z,28.92
2019-02-15T05:37:26.881Z,29.37
2019-02-15T05:37:59.797Z,29.77
2019-02-15T05:38:32.700Z,29.25
2019-02-15T05:39:08.309Z,28.60
2019-02-15T05:39:41.104Z,29.50
2019-02-15T05:40:13.978Z,29.15
2019-02-15T05:40:46.858Z,29.57
2019-02-15T05:41:19.810Z,28.80
2019-02-15T05:41:52.720Z,29.35
2019-02-15T05:42:25.641Z,29.45
2019-02-15T05:42:58.564Z,29.90
2019-02-15T05:43:31.387Z,29.50
2019-02-15T05:44:04.383Z,29.35
2019-02-15T05:44:37.289Z,29.37
2019-02-15T05:45:10.419Z,29.80
2019-02-15T05:45:43.453Z,29.75
2019-02-15T05:46:16.357Z,29.45
2019-02-15T05:46:49.257Z,29.10
2019-02-15T05:47:22.156Z,28.75
2019-02-15T05:47:56.240Z,29.63
2019-02-15T05:48:29.038Z,29.25
2019-02-15T05:49:02.313Z,29.27
2019-02-15T05:49:35.159Z,28.85
2019-02-15T05:50:08.219Z,29.30
2019-02-15T05:50:41.007Z,29.72
2019-02-15T05:51:13.866Z,29.18
2019-02-15T05:51:47.638Z,29.20
2019-02-15T05:52:21.685Z,29.75
2019-02-15T05:52:54.716Z,29.55
2019-02-15T05:53:27.630Z,28.77
2019-02-15T05:54:00.623Z,29.75
2019-02-15T05:54:33.405Z,29.52
2019-02-15T05:55:06.575Z,29.80
2019-02-15T05:55:39.486Z,29.87
2019-02-15T05:56:12.424Z,29.48
2019-02-15T05:56:45.520Z,29.42
2019-02-15T05:57:18.530Z,29.77
2019-02-15T05:57:51.347Z,30.95
2019-02-15T05:58:24.162Z,29.92
2019-02-15T05:58:57.064Z,29.85
2019-02-15T05:59:31.880Z,30.50
2019-02-15T06:00:07.227Z,30.48
2019-02-15T06:00:40.182Z,29.87
2019-02-15T06:01:13.207Z,29.48
2019-02-15T06:01:46.273Z,29.57
2019-02-15T06:02:19.255Z,29.75
2019-02-15T06:02:52.218Z,30.57
2019-02-15T06:03:25.270Z,29.92
2019-02-15T06:03:58.264Z,29.95
2019-02-15T06:04:31.245Z,29.52
2019-02-15T06:05:04.355Z,30.65
2019-02-15T06:05:39.061Z,30.32
2019-02-15T06:06:12.126Z,30.08
2019-02-15T06:06:45.059Z,29.52
2019-02-15T06:07:18.154Z,29.90
2019-02-15T06:07:51.168Z,29.82
2019-02-15T06:08:24.181Z,30.12
2019-02-15T06:08:57.246Z,29.75
2019-02-15T06:09:30.140Z,29.82
2019-02-15T06:10:03.645Z,29.70
2019-02-15T06:10:36.502Z,29.70
2019-02-15T06:11:10.705Z,30.02
2019-02-15T06:11:43.802Z,30.60
2019-02-15T06:12:16.804Z,29.27
2019-02-15T06:12:49.889Z,29.95
2019-02-15T06:13:22.719Z,30.10
2019-02-15T06:13:55.723Z,30.45
2019-02-15T06:14:28.567Z,30.12
2019-02-15T06:15:02.192Z,30.02
2019-02-15T06:15:35.245Z,30.23
2019-02-15T06:16:08.104Z,29.00
2019-02-15T06:16:40.978Z,29.70
2019-02-15T06:17:14.266Z,29.50
2019-02-15T06:17:47.221Z,30.05
2019-02-15T06:18:33.255Z,30.15
2019-02-15T06:19:06.268Z,29.32
2019-02-15T06:19:39.205Z,29.72
2019-02-15T06:20:11.998Z,29.80
2019-02-15T06:20:44.981Z,29.60
2019-02-15T06:21:17.871Z,30.17
2019-02-15T06:21:50.794Z,29.30
2019-02-15T06:22:23.856Z,29.52
2019-02-15T06:22:57.738Z,30.02
2019-02-15T06:23:30.520Z,30.60
2019-02-15T06:24:03.597Z,29.80
2019-02-15T06:24:36.486Z,29.80
2019-02-15T06:25:10.630Z,30.80
2019-02-15T06:25:43.516Z,29.67
2019-02-15T06:26:16.808Z,30.20
2019-02-15T06:26:49.723Z,29.05
2019-02-15T06:27:22.642Z,30.30
2019-02-15T06:27:55.543Z,30.25
2019-02-15T06:28:29.625Z,29.42
2019-02-15T06:29:02.498Z,29.52
2019-02-15T06:29:35.459Z,28.52
2019-02-15T06:30:08.733Z,30.23
2019-02-15T06:30:41.776Z,29.50
2019-02-15T06:31:14.589Z,29.35
2019-02-15T06:31:47.431Z,28.65
2019-02-15T06:32:20.457Z,29.20
2019-02-15T06:32:53.587Z,29.05
2019-02-15T06:33:26.512Z,29.35
2019-02-15T06:33:59.379Z,29.25
2019-02-15T06:34:32.403Z,30.12
2019-02-15T06:35:05.542Z,30.55
2019-02-15T06:35:38.387Z,30.77
2019-02-15T06:36:11.314Z,31.27
2019-02-15T06:36:44.106Z,31.00
2019-02-15T06:37:17.087Z,30.25
2019-02-15T06:37:49.984Z,31.45
2019-02-15T06:38:22.882Z,30.10
2019-02-15T06:38:55.674Z,30.68
2019-02-15T06:39:28.547Z,30.48
2019-02-15T06:40:01.458Z,29.37
2019-02-15T06:40:34.531Z,30.08
2019-02-15T06:41:07.549Z,30.30
2019-02-15T06:41:40.579Z,30.88
2019-02-15T06:42:13.628Z,30.27
2019-02-15T06:42:46.792Z,30.75
2019-02-15T06:43:19.799Z,30.40
2019-02-15T06:43:53.146Z,31.07
2019-02-15T06:44:26.160Z,30.20
2019-02-15T06:44:59.082Z,29.90
2019-02-15T06:45:32.094Z,30.75
2019-02-15T06:46:05.158Z,30.00
2019-02-15T06:46:38.074Z,29.42
2019-02-15T06:47:11.300Z,30.25
2019-02-15T06:47:44.322Z,30.52
2019-02-15T06:48:19.184Z,30.50
2019-02-15T06:48:52.134Z,30.27
2019-02-15T06:49:25.130Z,30.55
2019-02-15T06:49:58.085Z,30.88
2019-02-15T06:50:31.204Z,30.90
2019-02-15T06:51:04.210Z,31.12
2019-02-15T06:51:37.380Z,29.85
2019-02-15T06:52:10.294Z,30.25
2019-02-15T06:52:43.312Z,29.90
2019-02-15T06:53:16.297Z,30.15
2019-02-15T06:53:49.460Z,30.85
2019-02-15T06:54:22.378Z,30.23
2019-02-15T06:54:55.238Z,29.92
2019-02-15T06:55:28.355Z,30.17
2019-02-15T06:56:01.336Z,29.63
2019-02-15T06:56:34.321Z,29.85
2019-02-15T06:57:08.842Z,30.37
2019-02-15T06:57:41.844Z,29.45
2019-02-15T06:58:16.437Z,30.43
2019-02-15T06:59:11.958Z,30.57
2019-02-15T06:59:53.078Z,30.60
2019-02-15T07:00:48.458Z,30.43
2019-02-15T07:01:36.193Z,30.23
2019-02-15T07:02:17.696Z,30.52
2019-02-15T07:02:58.794Z,30.85
2019-02-15T07:03:57.550Z,31.27
2019-02-15T07:04:35.635Z,31.15
2019-02-15T07:05:26.425Z,31.60
2019-02-15T07:05:59.500Z,31.15
2019-02-15T07:06:33.574Z,32.33
2019-02-15T07:07:06.459Z,31.68
2019-02-15T07:07:39.703Z,31.62
2019-02-15T07:08:12.694Z,31.33
2019-02-15T07:08:45.770Z,31.02
2019-02-15T07:09:18.795Z,31.02
2019-02-15T07:09:51.890Z,31.20
2019-02-15T07:10:25.074Z,31.33
2019-02-15T07:10:58.147Z,32.03
2019-02-15T07:11:31.155Z,32.00
2019-02-15T07:12:04.244Z,31.45
2019-02-15T07:12:37.208Z,32.10
2019-02-15T07:13:10.170Z,31.50
2019-02-15T07:13:43.272Z,31.12
2019-02-15T07:14:16.366Z,31.62
2019-02-15T07:14:49.394Z,31.10
2019-02-15T07:15:22.590Z,31.55
2019-02-15T07:15:55.503Z,31.33
2019-02-15T07:16:28.557Z,31.15
2019-02-15T07:17:01.512Z,31.12
2019-02-15T07:17:34.510Z,32.38
2019-02-15T07:18:07.540Z,31.70
2019-02-15T07:18:40.468Z,31.45
2019-02-15T07:19:13.500Z,31.50
2019-02-15T07:19:47.870Z,31.20
2019-02-15T07:20:20.868Z,30.90
2019-02-15T07:20:54.038Z,31.42
2019-02-15T07:21:27.040Z,31.40
2019-02-15T07:22:00.047Z,31.48
2019-02-15T07:22:32.937Z,31.25
2019-02-15T07:23:07.364Z,31.42
2019-02-15T07:23:40.262Z,30.75
2019-02-15T07:24:13.199Z,31.02
2019-02-15T07:24:47.287Z,30.80
2019-02-15T07:25:20.486Z,30.70
2019-02-15T07:25:53.498Z,30.68
2019-02-15T07:26:26.844Z,31.12
2019-02-15T07:26:59.854Z,31.42
2019-02-15T07:27:32.836Z,31.00
2019-02-15T07:28:05.730Z,32.60
2019-02-15T07:28:38.908Z,31.40
2019-02-15T07:29:11.833Z,31.35
2019-02-15T07:29:44.746Z,31.45